HAZ1610 ZPPP-ZUTF
Flight info
| Callsign | HAZ1610 |
|---|---|
| Flight time | 0h 56m |
| Altitude | 35100 |
| Route | DADOL9Y DADOL W144 VEDPO/K0895S1100 W144 IGNAK IGNAK8M |
| Aircraft | B77W/H-SDE1E2E3FGHIJ2J3J4J5M1RWXY/LB1D1 |
Departure
| Time | 2026-05-07 05:52 |
|---|---|
| Airport | Kunming Changshui International Airport (ZPPP) |
Arrival
| Time | 2026-05-07 06:49 |
|---|---|
| Airport | Chengdu Tianfu International Airport (ZUTF) |
| Time | Latitude | Longitude | Altitude | Speed | Heading |
|---|---|---|---|---|---|
| 2026-05-07 05:37 | 25.10214 | 102.93471 | 6920 ft | 0 kts | 358° |
| 2026-05-07 05:43 | 25.10202 | 102.93471 | 6920 ft | 2 kts | 358° |
| 2026-05-07 05:43 | 25.10193 | 102.93472 | 6920 ft | 2 kts | 355° |
| 2026-05-07 05:43 | 25.10178 | 102.93477 | 6920 ft | 2 kts | 322° |
| 2026-05-07 05:44 | 25.10168 | 102.93489 | 6920 ft | 2 kts | 297° |
| 2026-05-07 05:44 | 25.10164 | 102.93505 | 6920 ft | 2 kts | 271° |
| 2026-05-07 05:44 | 25.10166 | 102.93521 | 6920 ft | 2 kts | 246° |
| 2026-05-07 05:44 | 25.10174 | 102.93534 | 6920 ft | 0 kts | 222° |
| 2026-05-07 05:45 | 25.10177 | 102.93538 | 6920 ft | 0 kts | 220° |
| 2026-05-07 05:46 | 25.10177 | 102.93537 | 6920 ft | 0 kts | 220° |
| 2026-05-07 05:46 | 25.10150 | 102.93515 | 6920 ft | 8 kts | 210° |
| 2026-05-07 05:47 | 25.10079 | 102.93543 | 6920 ft | 15 kts | 126° |
| 2026-05-07 05:47 | 25.10013 | 102.93647 | 6920 ft | 16 kts | 131° |
| 2026-05-07 05:47 | 25.09922 | 102.93664 | 6920 ft | 13 kts | 212° |
| 2026-05-07 05:47 | 25.09842 | 102.93595 | 6920 ft | 16 kts | 220° |
| 2026-05-07 05:48 | 25.09745 | 102.93507 | 6920 ft | 20 kts | 219° |
| 2026-05-07 05:48 | 25.09624 | 102.93403 | 6920 ft | 23 kts | 217° |
| 2026-05-07 05:48 | 25.09485 | 102.93283 | 6920 ft | 26 kts | 219° |
| 2026-05-07 05:48 | 25.09343 | 102.93159 | 6920 ft | 24 kts | 219° |
| 2026-05-07 05:49 | 25.09220 | 102.93048 | 6920 ft | 20 kts | 219° |
| 2026-05-07 05:49 | 25.09126 | 102.92967 | 6920 ft | 15 kts | 212° |
| 2026-05-07 05:49 | 25.09040 | 102.92988 | 6920 ft | 12 kts | 139° |
| 2026-05-07 05:49 | 25.09001 | 102.93064 | 6920 ft | 10 kts | 94° |
| 2026-05-07 05:50 | 25.09029 | 102.93126 | 6920 ft | 8 kts | 44° |
| 2026-05-07 05:50 | 25.09042 | 102.93137 | 6920 ft | 0 kts | 39° |
| 2026-05-07 05:51 | 25.09049 | 102.93144 | 6920 ft | 9 kts | 39° |
| 2026-05-07 05:51 | 25.09261 | 102.93329 | 6920 ft | 68 kts | 38° |
| 2026-05-07 05:51 | 25.09788 | 102.93790 | 6920 ft | 123 kts | 38° |
| 2026-05-07 05:52 | 25.10596 | 102.94492 | 6921 ft | 169 kts | 37° |
| 2026-05-07 05:52 | 25.11616 | 102.95378 | 7017 ft | 198 kts | 39° |
| 2026-05-07 05:52 | 25.12717 | 102.96334 | 7493 ft | 206 kts | 39° |
| 2026-05-07 05:52 | 25.13704 | 102.97529 | 8138 ft | 214 kts | 59° |
| 2026-05-07 05:53 | 25.14458 | 102.99008 | 8463 ft | 231 kts | 52° |
| 2026-05-07 05:53 | 25.15804 | 103.00146 | 8660 ft | 256 kts | 20° |
| 2026-05-07 05:53 | 25.17649 | 103.00298 | 8871 ft | 282 kts | 350° |
| 2026-05-07 05:53 | 25.19618 | 102.99751 | 9539 ft | 290 kts | 346° |
| 2026-05-07 05:54 | 25.21600 | 102.99136 | 10332 ft | 294 kts | 344° |
| 2026-05-07 05:54 | 25.23600 | 102.98513 | 10861 ft | 308 kts | 343° |
| 2026-05-07 05:54 | 25.25721 | 102.97850 | 11297 ft | 325 kts | 343° |
| 2026-05-07 05:54 | 25.27980 | 102.97142 | 11726 ft | 343 kts | 342° |
| 2026-05-07 05:55 | 25.30348 | 102.96399 | 12172 ft | 359 kts | 342° |
| 2026-05-07 05:55 | 25.32886 | 102.95602 | 12622 ft | 375 kts | 342° |
| 2026-05-07 05:55 | 25.35458 | 102.94794 | 13115 ft | 389 kts | 341° |
| 2026-05-07 05:55 | 25.38098 | 102.93964 | 13811 ft | 395 kts | 341° |
| 2026-05-07 05:56 | 25.40787 | 102.93118 | 14674 ft | 397 kts | 341° |
| 2026-05-07 05:56 | 25.43485 | 102.92269 | 15523 ft | 399 kts | 341° |
| 2026-05-07 05:56 | 25.46173 | 102.91421 | 16295 ft | 403 kts | 340° |
| 2026-05-07 05:56 | 25.48928 | 102.90552 | 17049 ft | 407 kts | 340° |
| 2026-05-07 05:57 | 25.51722 | 102.89670 | 17800 ft | 411 kts | 340° |
| 2026-05-07 05:57 | 25.54473 | 102.88799 | 18508 ft | 415 kts | 340° |
| 2026-05-07 05:57 | 25.57268 | 102.87913 | 19152 ft | 420 kts | 340° |
| 2026-05-07 05:57 | 25.60131 | 102.87004 | 19820 ft | 424 kts | 340° |
| 2026-05-07 05:58 | 25.62989 | 102.86095 | 20472 ft | 428 kts | 340° |
| 2026-05-07 05:58 | 25.65895 | 102.85174 | 21118 ft | 432 kts | 341° |
| 2026-05-07 05:58 | 25.68928 | 102.84575 | 21764 ft | 442 kts | 351° |
| 2026-05-07 05:58 | 25.72065 | 102.84570 | 22361 ft | 453 kts | 0° |
| 2026-05-07 05:59 | 25.75215 | 102.85169 | 22932 ft | 464 kts | 11° |
| 2026-05-07 05:59 | 25.78310 | 102.86407 | 23507 ft | 474 kts | 21° |
| 2026-05-07 05:59 | 25.81253 | 102.88127 | 24067 ft | 480 kts | 25° |
| 2026-05-07 05:59 | 25.84261 | 102.89980 | 24605 ft | 485 kts | 25° |
| 2026-05-07 06:00 | 25.87244 | 102.91804 | 25104 ft | 491 kts | 25° |
| 2026-05-07 06:00 | 25.90286 | 102.93650 | 25646 ft | 495 kts | 24° |
| 2026-05-07 06:00 | 25.93325 | 102.95483 | 26212 ft | 499 kts | 24° |
| 2026-05-07 06:00 | 25.96438 | 102.97353 | 26772 ft | 503 kts | 24° |
| 2026-05-07 06:01 | 25.99594 | 102.99245 | 27317 ft | 507 kts | 24° |
| 2026-05-07 06:01 | 26.02770 | 103.01144 | 27843 ft | 512 kts | 23° |
| 2026-05-07 06:01 | 26.05911 | 103.03020 | 28391 ft | 516 kts | 23° |
| 2026-05-07 06:01 | 26.09116 | 103.04934 | 28930 ft | 520 kts | 23° |
| 2026-05-07 06:02 | 26.12316 | 103.06844 | 29520 ft | 522 kts | 23° |
| 2026-05-07 06:02 | 26.15513 | 103.08754 | 30242 ft | 521 kts | 23° |
| 2026-05-07 06:02 | 26.18760 | 103.10695 | 31188 ft | 515 kts | 23° |
| 2026-05-07 06:02 | 26.21905 | 103.12575 | 32130 ft | 508 kts | 23° |
| 2026-05-07 06:03 | 26.25090 | 103.14479 | 33009 ft | 503 kts | 23° |
| 2026-05-07 06:03 | 26.28165 | 103.16317 | 33754 ft | 501 kts | 23° |
| 2026-05-07 06:03 | 26.31316 | 103.18199 | 34346 ft | 501 kts | 23° |
| 2026-05-07 06:03 | 26.34380 | 103.20031 | 34906 ft | 502 kts | 23° |
| 2026-05-07 06:04 | 26.37521 | 103.21909 | 35441 ft | 502 kts | 23° |
| 2026-05-07 06:04 | 26.43727 | 103.25626 | 35485 ft | 501 kts | 23° |
| 2026-05-07 06:05 | 26.49903 | 103.29329 | 35474 ft | 500 kts | 23° |
| 2026-05-07 06:05 | 26.56140 | 103.32854 | 35477 ft | 498 kts | 21° |
| 2026-05-07 06:06 | 26.62394 | 103.36313 | 35464 ft | 499 kts | 21° |
| 2026-05-07 06:06 | 26.68666 | 103.39796 | 35461 ft | 499 kts | 21° |
| 2026-05-07 06:07 | 26.74921 | 103.43280 | 35450 ft | 498 kts | 21° |
| 2026-05-07 06:07 | 26.81168 | 103.46767 | 35446 ft | 497 kts | 21° |
| 2026-05-07 06:08 | 26.87404 | 103.50255 | 35437 ft | 496 kts | 21° |
| 2026-05-07 06:08 | 26.93598 | 103.53723 | 35442 ft | 497 kts | 21° |
| 2026-05-07 06:09 | 26.99810 | 103.57207 | 35438 ft | 496 kts | 21° |
| 2026-05-07 06:09 | 27.06061 | 103.60716 | 35444 ft | 498 kts | 21° |
| 2026-05-07 06:10 | 27.12287 | 103.64217 | 35452 ft | 496 kts | 21° |
| 2026-05-07 06:10 | 27.18527 | 103.67729 | 35441 ft | 498 kts | 21° |
| 2026-05-07 06:11 | 27.24767 | 103.71248 | 35427 ft | 497 kts | 21° |
| 2026-05-07 06:11 | 27.30985 | 103.74757 | 35427 ft | 498 kts | 21° |
| 2026-05-07 06:12 | 27.37258 | 103.78120 | 35417 ft | 497 kts | 18° |
| 2026-05-07 06:12 | 27.43630 | 103.81384 | 35411 ft | 496 kts | 18° |
| 2026-05-07 06:13 | 27.49933 | 103.84643 | 35423 ft | 497 kts | 19° |
| 2026-05-07 06:13 | 27.56261 | 103.87949 | 35397 ft | 498 kts | 19° |
| 2026-05-07 06:14 | 27.62630 | 103.91284 | 35389 ft | 497 kts | 19° |
| 2026-05-07 06:14 | 27.68980 | 103.94615 | 35380 ft | 499 kts | 19° |
| 2026-05-07 06:15 | 27.75305 | 103.97938 | 35341 ft | 498 kts | 19° |
| 2026-05-07 06:15 | 27.81598 | 104.01250 | 35332 ft | 500 kts | 19° |
| 2026-05-07 06:16 | 27.87979 | 104.04614 | 35320 ft | 498 kts | 19° |
| 2026-05-07 06:16 | 27.94340 | 104.07970 | 35304 ft | 498 kts | 19° |
| 2026-05-07 06:17 | 28.00630 | 104.11294 | 35286 ft | 500 kts | 18° |
| 2026-05-07 06:17 | 28.07046 | 104.14689 | 35283 ft | 500 kts | 19° |
| 2026-05-07 06:18 | 28.13376 | 104.18043 | 35283 ft | 501 kts | 18° |
| 2026-05-07 06:18 | 28.19735 | 104.21416 | 35287 ft | 500 kts | 19° |
| 2026-05-07 06:19 | 28.26121 | 104.24809 | 35282 ft | 500 kts | 18° |
| 2026-05-07 06:19 | 28.32422 | 104.28161 | 35245 ft | 500 kts | 18° |
| 2026-05-07 06:20 | 28.38977 | 104.30506 | 35216 ft | 484 kts | 1° |
| 2026-05-07 06:20 | 28.45699 | 104.30689 | 35204 ft | 470 kts | 349° |
| 2026-05-07 06:21 | 28.52253 | 104.30328 | 35186 ft | 470 kts | 349° |
| 2026-05-07 06:21 | 28.58827 | 104.29964 | 35187 ft | 471 kts | 349° |
| 2026-05-07 06:22 | 28.65440 | 104.29600 | 35207 ft | 470 kts | 349° |
| 2026-05-07 06:22 | 28.71962 | 104.29243 | 35046 ft | 465 kts | 349° |
| 2026-05-07 06:22 | 28.75198 | 104.29066 | 34680 ft | 466 kts | 349° |
| 2026-05-07 06:23 | 28.78472 | 104.28885 | 34147 ft | 472 kts | 349° |
| 2026-05-07 06:23 | 28.81740 | 104.28704 | 33688 ft | 475 kts | 349° |
| 2026-05-07 06:23 | 28.85048 | 104.28523 | 33359 ft | 476 kts | 349° |
| 2026-05-07 06:23 | 28.88346 | 104.28344 | 33120 ft | 475 kts | 349° |
| 2026-05-07 06:24 | 28.91629 | 104.28165 | 32846 ft | 476 kts | 349° |
| 2026-05-07 06:24 | 28.94979 | 104.27982 | 32600 ft | 476 kts | 350° |
| 2026-05-07 06:24 | 28.98315 | 104.27799 | 32242 ft | 479 kts | 350° |
| 2026-05-07 06:24 | 29.01723 | 104.27611 | 31848 ft | 482 kts | 350° |
| 2026-05-07 06:25 | 29.05092 | 104.27425 | 31543 ft | 484 kts | 351° |
| 2026-05-07 06:25 | 29.08542 | 104.27236 | 31310 ft | 485 kts | 351° |
| 2026-05-07 06:25 | 29.11932 | 104.27051 | 31065 ft | 486 kts | 351° |
| 2026-05-07 06:25 | 29.15340 | 104.26865 | 30865 ft | 485 kts | 351° |
| 2026-05-07 06:26 | 29.18759 | 104.26677 | 30723 ft | 484 kts | 351° |
| 2026-05-07 06:26 | 29.22139 | 104.26492 | 30566 ft | 483 kts | 351° |
| 2026-05-07 06:26 | 29.25476 | 104.26341 | 30379 ft | 480 kts | 354° |
| 2026-05-07 06:26 | 29.28853 | 104.26652 | 29918 ft | 480 kts | 4° |
| 2026-05-07 06:27 | 29.32143 | 104.27367 | 29344 ft | 478 kts | 6° |
| 2026-05-07 06:27 | 29.35388 | 104.28132 | 28765 ft | 474 kts | 7° |
| 2026-05-07 06:27 | 29.38618 | 104.28896 | 28195 ft | 470 kts | 7° |
| 2026-05-07 06:27 | 29.41779 | 104.29644 | 27620 ft | 467 kts | 7° |
| 2026-05-07 06:28 | 29.44959 | 104.30396 | 27052 ft | 463 kts | 7° |
| 2026-05-07 06:28 | 29.48098 | 104.31139 | 26478 ft | 460 kts | 7° |
| 2026-05-07 06:28 | 29.51237 | 104.31984 | 25890 ft | 459 kts | 13° |
| 2026-05-07 06:28 | 29.54176 | 104.33337 | 25324 ft | 460 kts | 24° |
| 2026-05-07 06:29 | 29.56966 | 104.35186 | 24715 ft | 459 kts | 29° |
| 2026-05-07 06:29 | 29.59675 | 104.37124 | 24091 ft | 457 kts | 29° |
| 2026-05-07 06:29 | 29.62380 | 104.39073 | 23474 ft | 454 kts | 30° |
| 2026-05-07 06:29 | 29.65054 | 104.41002 | 22864 ft | 451 kts | 30° |
| 2026-05-07 06:30 | 29.67719 | 104.42928 | 22253 ft | 447 kts | 30° |
| 2026-05-07 06:30 | 29.70332 | 104.44817 | 21670 ft | 444 kts | 30° |
| 2026-05-07 06:30 | 29.72923 | 104.46693 | 21066 ft | 442 kts | 30° |
| 2026-05-07 06:30 | 29.75531 | 104.48582 | 20448 ft | 439 kts | 30° |
| 2026-05-07 06:31 | 29.78204 | 104.50248 | 19827 ft | 434 kts | 21° |
| 2026-05-07 06:31 | 29.80999 | 104.51588 | 19649 ft | 418 kts | 19° |
| 2026-05-07 06:31 | 29.83637 | 104.52824 | 19609 ft | 407 kts | 19° |
| 2026-05-07 06:31 | 29.86358 | 104.54094 | 19295 ft | 425 kts | 19° |
| 2026-05-07 06:32 | 29.89160 | 104.55243 | 18685 ft | 424 kts | 12° |
| 2026-05-07 06:32 | 29.92030 | 104.55837 | 18052 ft | 417 kts | 1° |
| 2026-05-07 06:32 | 29.94893 | 104.55843 | 17457 ft | 410 kts | 351° |
| 2026-05-07 06:32 | 29.97667 | 104.55273 | 16911 ft | 401 kts | 341° |
| 2026-05-07 06:33 | 30.00234 | 104.54150 | 16528 ft | 388 kts | 330° |
| 2026-05-07 06:33 | 30.02461 | 104.52550 | 16434 ft | 368 kts | 320° |
| 2026-05-07 06:33 | 30.04265 | 104.50552 | 16220 ft | 353 kts | 306° |
| 2026-05-07 06:33 | 30.05505 | 104.48144 | 15880 ft | 342 kts | 289° |
| 2026-05-07 06:34 | 30.05981 | 104.45499 | 15588 ft | 332 kts | 270° |
| 2026-05-07 06:34 | 30.05594 | 104.42931 | 15357 ft | 321 kts | 248° |
| 2026-05-07 06:34 | 30.04402 | 104.40822 | 15179 ft | 311 kts | 225° |
| 2026-05-07 06:34 | 30.02630 | 104.39477 | 14949 ft | 305 kts | 202° |
| 2026-05-07 06:35 | 30.00550 | 104.39059 | 14601 ft | 303 kts | 178° |
| 2026-05-07 06:35 | 29.98513 | 104.39623 | 14256 ft | 302 kts | 160° |
| 2026-05-07 06:35 | 29.96540 | 104.40453 | 13932 ft | 298 kts | 169° |
| 2026-05-07 06:35 | 29.94512 | 104.40536 | 13661 ft | 292 kts | 189° |
| 2026-05-07 06:36 | 29.92549 | 104.40028 | 13369 ft | 288 kts | 198° |
| 2026-05-07 06:36 | 29.90650 | 104.39265 | 13033 ft | 287 kts | 201° |
| 2026-05-07 06:36 | 29.88779 | 104.38417 | 12679 ft | 286 kts | 202° |
| 2026-05-07 06:36 | 29.86944 | 104.37562 | 12333 ft | 285 kts | 202° |
| 2026-05-07 06:37 | 29.85096 | 104.36668 | 11981 ft | 284 kts | 209° |
| 2026-05-07 06:37 | 29.83604 | 104.35217 | 11636 ft | 281 kts | 237° |
| 2026-05-07 06:37 | 29.82827 | 104.33173 | 11288 ft | 277 kts | 263° |
| 2026-05-07 06:37 | 29.82863 | 104.31004 | 10886 ft | 275 kts | 284° |
| 2026-05-07 06:38 | 29.83360 | 104.28906 | 10487 ft | 268 kts | 292° |
| 2026-05-07 06:38 | 29.83990 | 104.26950 | 10134 ft | 256 kts | 295° |
| 2026-05-07 06:38 | 29.84653 | 104.25082 | 9834 ft | 244 kts | 300° |
| 2026-05-07 06:38 | 29.85706 | 104.23663 | 9565 ft | 227 kts | 331° |
| 2026-05-07 06:39 | 29.87120 | 104.23011 | 9306 ft | 219 kts | 355° |
| 2026-05-07 06:39 | 29.88623 | 104.23103 | 9031 ft | 216 kts | 13° |
| 2026-05-07 06:39 | 29.90059 | 104.23570 | 8744 ft | 213 kts | 20° |
| 2026-05-07 06:39 | 29.91451 | 104.24170 | 8482 ft | 211 kts | 23° |
| 2026-05-07 06:40 | 29.92845 | 104.24815 | 8226 ft | 211 kts | 24° |
| 2026-05-07 06:40 | 29.94193 | 104.25444 | 7981 ft | 209 kts | 24° |
| 2026-05-07 06:40 | 29.95542 | 104.26073 | 7740 ft | 209 kts | 24° |
| 2026-05-07 06:40 | 29.96892 | 104.26703 | 7499 ft | 208 kts | 24° |
| 2026-05-07 06:41 | 29.98227 | 104.27325 | 7258 ft | 208 kts | 24° |
| 2026-05-07 06:41 | 29.99592 | 104.27962 | 7012 ft | 207 kts | 24° |
| 2026-05-07 06:41 | 30.00942 | 104.28593 | 6769 ft | 206 kts | 24° |
| 2026-05-07 06:41 | 30.02267 | 104.29214 | 6535 ft | 206 kts | 24° |
| 2026-05-07 06:42 | 30.03598 | 104.29836 | 6298 ft | 206 kts | 24° |
| 2026-05-07 06:42 | 30.04942 | 104.30464 | 6119 ft | 197 kts | 24° |
| 2026-05-07 06:42 | 30.06176 | 104.31040 | 6067 ft | 187 kts | 24° |
| 2026-05-07 06:42 | 30.07369 | 104.31599 | 5991 ft | 183 kts | 25° |
| 2026-05-07 06:43 | 30.08556 | 104.32156 | 5737 ft | 180 kts | 25° |
| 2026-05-07 06:43 | 30.09706 | 104.32715 | 5484 ft | 175 kts | 28° |
| 2026-05-07 06:43 | 30.10803 | 104.33290 | 5262 ft | 171 kts | 25° |
| 2026-05-07 06:43 | 30.11912 | 104.33799 | 5040 ft | 166 kts | 24° |
| 2026-05-07 06:44 | 30.12978 | 104.34280 | 4828 ft | 160 kts | 24° |
| 2026-05-07 06:44 | 30.14007 | 104.34750 | 4626 ft | 159 kts | 25° |
| 2026-05-07 06:44 | 30.15015 | 104.35215 | 4412 ft | 151 kts | 25° |
| 2026-05-07 06:44 | 30.15981 | 104.35663 | 4220 ft | 143 kts | 25° |
| 2026-05-07 06:45 | 30.16904 | 104.36093 | 4036 ft | 143 kts | 25° |
| 2026-05-07 06:45 | 30.17827 | 104.36523 | 3841 ft | 143 kts | 25° |
| 2026-05-07 06:45 | 30.18755 | 104.36955 | 3654 ft | 142 kts | 25° |
| 2026-05-07 06:45 | 30.19703 | 104.37398 | 3454 ft | 143 kts | 25° |
| 2026-05-07 06:46 | 30.20632 | 104.37831 | 3261 ft | 142 kts | 25° |
| 2026-05-07 06:46 | 30.21544 | 104.38257 | 3070 ft | 142 kts | 25° |
| 2026-05-07 06:46 | 30.22471 | 104.38689 | 2884 ft | 143 kts | 25° |
| 2026-05-07 06:46 | 30.23396 | 104.39122 | 2693 ft | 143 kts | 25° |
| 2026-05-07 06:47 | 30.24318 | 104.39554 | 2491 ft | 142 kts | 24° |
| 2026-05-07 06:47 | 30.25236 | 104.39981 | 2307 ft | 142 kts | 23° |
| 2026-05-07 06:47 | 30.26169 | 104.40417 | 2108 ft | 141 kts | 23° |
| 2026-05-07 06:47 | 30.27082 | 104.40843 | 1927 ft | 141 kts | 21° |
| 2026-05-07 06:48 | 30.28004 | 104.41264 | 1742 ft | 142 kts | 22° |
| 2026-05-07 06:48 | 30.28933 | 104.41694 | 1585 ft | 144 kts | 22° |
| 2026-05-07 06:48 | 30.29828 | 104.42115 | 1513 ft | 124 kts | 24° |
| 2026-05-07 06:48 | 30.30494 | 104.42432 | 1513 ft | 81 kts | 21° |
| 2026-05-07 06:49 | 30.30873 | 104.42612 | 1513 ft | 36 kts | 21° |
| 2026-05-07 06:49 | 30.31074 | 104.42725 | 1513 ft | 28 kts | 41° |
| 2026-05-07 06:49 | 30.31197 | 104.42891 | 1513 ft | 24 kts | 51° |
| 2026-05-07 06:49 | 30.31308 | 104.43023 | 1513 ft | 21 kts | 29° |
| 2026-05-07 06:50 | 30.31430 | 104.43102 | 1513 ft | 17 kts | 62° |
| 2026-05-07 06:50 | 30.31411 | 104.43235 | 1513 ft | 15 kts | 98° |
| 2026-05-07 06:50 | 30.31456 | 104.43333 | 1512 ft | 13 kts | 61° |
| 2026-05-07 06:50 | 30.31495 | 104.43413 | 1512 ft | 6 kts | 60° |
| 2026-05-07 06:51 | 30.31498 | 104.43419 | 1512 ft | 0 kts | 60° |